sensor_id;sensor_type;location;lat;lon;timestamp;P1;durP1;ratioP1;P2;durP2;ratioP2
48361;SDS011;34510;51.888;5.670;2023-04-03T00:06:57;697.72;;;230.45;;
48361;SDS011;34510;51.888;5.670;2023-04-03T00:11:59;696.88;;;217.10;;
48361;SDS011;34510;51.888;5.670;2023-04-03T00:17:01;702.83;;;234.65;;
48361;SDS011;34510;51.888;5.670;2023-04-03T00:22:03;698.33;;;248.20;;
48361;SDS011;34510;51.888;5.670;2023-04-03T00:27:05;701.88;;;242.60;;
48361;SDS011;34510;51.888;5.670;2023-04-03T00:32:07;700.28;;;236.52;;
48361;SDS011;34510;51.888;5.670;2023-04-03T00:37:09;710.67;;;235.52;;
48361;SDS011;34510;51.888;5.670;2023-04-03T00:42:11;672.42;;;231.60;;
48361;SDS011;34510;51.888;5.670;2023-04-03T00:47:15;704.17;;;226.43;;
48361;SDS011;34510;51.888;5.670;2023-04-03T00:52:19;696.67;;;221.52;;
48361;SDS011;34510;51.888;5.670;2023-04-03T00:57:27;584.05;;;215.13;;
48361;SDS011;34510;51.888;5.670;2023-04-03T01:02:32;575.90;;;217.73;;
48361;SDS011;34510;51.888;5.670;2023-04-03T01:07:34;580.00;;;218.30;;
48361;SDS011;34510;51.888;5.670;2023-04-03T01:12:38;588.75;;;215.32;;
48361;SDS011;34510;51.888;5.670;2023-04-03T01:17:49;587.90;;;207.70;;
48361;SDS011;34510;51.888;5.670;2023-04-03T01:28:19;587.60;;;205.48;;
48361;SDS011;34510;51.888;5.670;2023-04-03T01:33:29;569.55;;;213.57;;
48361;SDS011;34510;51.888;5.670;2023-04-03T01:38:31;561.78;;;208.10;;
48361;SDS011;34510;51.888;5.670;2023-04-03T01:43:33;568.65;;;195.93;;
48361;SDS011;34510;51.888;5.670;2023-04-03T01:48:35;602.70;;;204.55;;
48361;SDS011;34510;51.888;5.670;2023-04-03T01:53:37;600.17;;;213.45;;
48361;SDS011;34510;51.888;5.670;2023-04-03T01:58:39;590.10;;;204.73;;
48361;SDS011;34510;51.888;5.670;2023-04-03T02:03:41;590.42;;;206.73;;
48361;SDS011;34510;51.888;5.670;2023-04-03T02:08:43;602.75;;;206.82;;
48361;SDS011;34510;51.888;5.670;2023-04-03T02:13:45;589.78;;;205.82;;
48361;SDS011;34510;51.888;5.670;2023-04-03T02:18:47;585.58;;;213.32;;
48361;SDS011;34510;51.888;5.670;2023-04-03T02:23:49;572.40;;;209.85;;
48361;SDS011;34510;51.888;5.670;2023-04-03T02:28:53;578.42;;;210.18;;
48361;SDS011;34510;51.888;5.670;2023-04-03T02:33:54;580.28;;;220.88;;
48361;SDS011;34510;51.888;5.670;2023-04-03T02:39:00;574.08;;;218.02;;
48361;SDS011;34510;51.888;5.670;2023-04-03T02:44:03;571.00;;;209.23;;
48361;SDS011;34510;51.888;5.670;2023-04-03T02:49:06;576.38;;;223.02;;
48361;SDS011;34510;51.888;5.670;2023-04-03T02:54:08;568.40;;;208.93;;
48361;SDS011;34510;51.888;5.670;2023-04-03T02:59:13;566.70;;;200.80;;
48361;SDS011;34510;51.888;5.670;2023-04-03T03:04:16;574.03;;;210.50;;
48361;SDS011;34510;51.888;5.670;2023-04-03T03:09:18;570.20;;;214.93;;
48361;SDS011;34510;51.888;5.670;2023-04-03T03:14:20;557.92;;;204.15;;
48361;SDS011;34510;51.888;5.670;2023-04-03T03:19:22;546.35;;;203.27;;
48361;SDS011;34510;51.888;5.670;2023-04-03T03:24:24;558.30;;;204.93;;
48361;SDS011;34510;51.888;5.670;2023-04-03T03:29:26;563.67;;;204.85;;
48361;SDS011;34510;51.888;5.670;2023-04-03T03:34:28;558.20;;;208.95;;
48361;SDS011;34510;51.888;5.670;2023-04-03T03:39:30;548.92;;;199.57;;
48361;SDS011;34510;51.888;5.670;2023-04-03T03:44:32;573.72;;;202.93;;
48361;SDS011;34510;51.888;5.670;2023-04-03T03:49:34;569.95;;;201.00;;
48361;SDS011;34510;51.888;5.670;2023-04-03T03:54:36;614.25;;;207.38;;
48361;SDS011;34510;51.888;5.670;2023-04-03T03:59:39;596.28;;;210.40;;
48361;SDS011;34510;51.888;5.670;2023-04-03T04:04:43;650.92;;;205.82;;
48361;SDS011;34510;51.888;5.670;2023-04-03T04:09:45;640.20;;;209.02;;
48361;SDS011;34510;51.888;5.670;2023-04-03T04:14:48;637.97;;;206.48;;
48361;SDS011;34510;51.888;5.670;2023-04-03T04:19:50;614.33;;;194.95;;
48361;SDS011;34510;51.888;5.670;2023-04-03T04:24:52;620.28;;;206.50;;
48361;SDS011;34510;51.888;5.670;2023-04-03T04:29:54;595.97;;;195.23;;
48361;SDS011;34510;51.888;5.670;2023-04-03T04:34:59;606.88;;;208.75;;
48361;SDS011;34510;51.888;5.670;2023-04-03T04:40:04;625.67;;;205.07;;
48361;SDS011;34510;51.888;5.670;2023-04-03T04:45:06;625.80;;;205.23;;
48361;SDS011;34510;51.888;5.670;2023-04-03T04:50:10;617.08;;;193.77;;
48361;SDS011;34510;51.888;5.670;2023-04-03T04:55:14;635.50;;;202.50;;
48361;SDS011;34510;51.888;5.670;2023-04-03T05:00:16;659.00;;;194.98;;
48361;SDS011;34510;51.888;5.670;2023-04-03T05:05:19;666.22;;;200.75;;
48361;SDS011;34510;51.888;5.670;2023-04-03T05:10:21;689.83;;;203.85;;
48361;SDS011;34510;51.888;5.670;2023-04-03T05:15:24;537.00;;;184.60;;
48361;SDS011;34510;51.888;5.670;2023-04-03T05:20:27;522.58;;;184.23;;
48361;SDS011;34510;51.888;5.670;2023-04-03T05:25:29;540.13;;;197.13;;
48361;SDS011;34510;51.888;5.670;2023-04-03T05:30:32;623.97;;;197.18;;
48361;SDS011;34510;51.888;5.670;2023-04-03T05:35:37;546.95;;;184.20;;
48361;SDS011;34510;51.888;5.670;2023-04-03T05:40:46;570.30;;;188.27;;
48361;SDS011;34510;51.888;5.670;2023-04-03T05:45:50;553.85;;;178.90;;
48361;SDS011;34510;51.888;5.670;2023-04-03T05:50:58;540.63;;;190.50;;
48361;SDS011;34510;51.888;5.670;2023-04-03T05:56:00;523.63;;;182.73;;
48361;SDS011;34510;51.888;5.670;2023-04-03T06:01:05;478.75;;;171.82;;
48361;SDS011;34510;51.888;5.670;2023-04-03T06:06:10;498.63;;;182.00;;
48361;SDS011;34510;51.888;5.670;2023-04-03T06:11:15;500.25;;;170.40;;
48361;SDS011;34510;51.888;5.670;2023-04-03T06:16:19;526.88;;;178.80;;
48361;SDS011;34510;51.888;5.670;2023-04-03T06:21:21;515.45;;;183.70;;
48361;SDS011;34510;51.888;5.670;2023-04-03T06:26:24;527.58;;;183.23;;
48361;SDS011;34510;51.888;5.670;2023-04-03T06:31:25;531.90;;;191.18;;
48361;SDS011;34510;51.888;5.670;2023-04-03T06:36:27;544.70;;;197.32;;
48361;SDS011;34510;51.888;5.670;2023-04-03T06:41:29;560.67;;;202.13;;
48361;SDS011;34510;51.888;5.670;2023-04-03T06:46:31;535.65;;;206.55;;
48361;SDS011;34510;51.888;5.670;2023-04-03T06:51:34;484.75;;;203.35;;
48361;SDS011;34510;51.888;5.670;2023-04-03T06:56:36;484.67;;;195.73;;
48361;SDS011;34510;51.888;5.670;2023-04-03T07:01:38;476.00;;;201.05;;
48361;SDS011;34510;51.888;5.670;2023-04-03T07:06:40;473.05;;;211.38;;
48361;SDS011;34510;51.888;5.670;2023-04-03T07:11:44;458.42;;;215.15;;
48361;SDS011;34510;51.888;5.670;2023-04-03T07:16:46;481.98;;;214.80;;
48361;SDS011;34510;51.888;5.670;2023-04-03T07:21:48;460.13;;;207.63;;
48361;SDS011;34510;51.888;5.670;2023-04-03T07:26:52;486.77;;;221.15;;
48361;SDS011;34510;51.888;5.670;2023-04-03T07:31:54;489.08;;;228.05;;
48361;SDS011;34510;51.888;5.670;2023-04-03T07:36:58;487.30;;;245.15;;
48361;SDS011;34510;51.888;5.670;2023-04-03T07:42:01;478.02;;;242.60;;
48361;SDS011;34510;51.888;5.670;2023-04-03T07:47:03;485.52;;;252.43;;
48361;SDS011;34510;51.888;5.670;2023-04-03T07:52:05;520.58;;;263.27;;
48361;SDS011;34510;51.888;5.670;2023-04-03T07:57:08;539.58;;;276.10;;
48361;SDS011;34510;51.888;5.670;2023-04-03T08:02:11;550.90;;;275.65;;
48361;SDS011;34510;51.888;5.670;2023-04-03T08:07:13;534.42;;;266.08;;
48361;SDS011;34510;51.888;5.670;2023-04-03T08:12:16;673.53;;;304.15;;
48361;SDS011;34510;51.888;5.670;2023-04-03T08:17:18;621.08;;;289.27;;
48361;SDS011;34510;51.888;5.670;2023-04-03T08:22:20;684.10;;;296.25;;
48361;SDS011;34510;51.888;5.670;2023-04-03T08:27:22;728.63;;;312.55;;
48361;SDS011;34510;51.888;5.670;2023-04-03T08:32:24;669.85;;;296.90;;
48361;SDS011;34510;51.888;5.670;2023-04-03T08:37:27;676.30;;;308.83;;
48361;SDS011;34510;51.888;5.670;2023-04-03T08:47:47;701.90;;;339.83;;
48361;SDS011;34510;51.888;5.670;2023-04-03T08:52:58;437.95;;;310.45;;
48361;SDS011;34510;51.888;5.670;2023-04-03T08:58:02;471.52;;;329.73;;
48361;SDS011;34510;51.888;5.670;2023-04-03T09:03:10;534.13;;;352.88;;
48361;SDS011;34510;51.888;5.670;2023-04-03T09:24:34;757.97;;;420.50;;
48361;SDS011;34510;51.888;5.670;2023-04-03T09:29:41;742.88;;;391.10;;
48361;SDS011;34510;51.888;5.670;2023-04-03T09:34:47;733.58;;;388.13;;
48361;SDS011;34510;51.888;5.670;2023-04-03T09:39:52;742.42;;;418.48;;
48361;SDS011;34510;51.888;5.670;2023-04-03T09:44:57;749.45;;;404.20;;
48361;SDS011;34510;51.888;5.670;2023-04-03T09:55:19;751.30;;;432.05;;
48361;SDS011;34510;51.888;5.670;2023-04-03T10:00:36;746.42;;;407.88;;
48361;SDS011;34510;51.888;5.670;2023-04-03T10:05:40;759.55;;;414.55;;
48361;SDS011;34510;51.888;5.670;2023-04-03T10:10:44;750.15;;;408.77;;
48361;SDS011;34510;51.888;5.670;2023-04-03T10:15:55;749.92;;;412.63;;
48361;SDS011;34510;51.888;5.670;2023-04-03T10:21:20;747.70;;;413.73;;
48361;SDS011;34510;51.888;5.670;2023-04-03T10:37:08;751.75;;;438.58;;
48361;SDS011;34510;51.888;5.670;2023-04-03T10:47:44;755.75;;;454.48;;
48361;SDS011;34510;51.888;5.670;2023-04-03T10:58:24;771.33;;;471.80;;
48361;SDS011;34510;51.888;5.670;2023-04-03T11:03:44;768.42;;;489.85;;
48361;SDS011;34510;51.888;5.670;2023-04-03T11:08:54;755.92;;;487.98;;
48361;SDS011;34510;51.888;5.670;2023-04-03T11:14:03;768.85;;;502.65;;
48361;SDS011;34510;51.888;5.670;2023-04-03T11:19:14;766.45;;;501.77;;
48361;SDS011;34510;51.888;5.670;2023-04-03T11:24:40;763.53;;;486.95;;
48361;SDS011;34510;51.888;5.670;2023-04-03T11:29:44;764.75;;;494.08;;
48361;SDS011;34510;51.888;5.670;2023-04-03T11:34:49;767.17;;;506.45;;
48361;SDS011;34510;51.888;5.670;2023-04-03T11:39:56;767.13;;;504.67;;
48361;SDS011;34510;51.888;5.670;2023-04-03T12:48:51;768.80;;;542.70;;
48361;SDS011;34510;51.888;5.670;2023-04-03T12:54:00;28.15;;;26.35;;
48361;SDS011;34510;51.888;5.670;2023-04-03T13:14:28;776.33;;;529.20;;
48361;SDS011;34510;51.888;5.670;2023-04-03T13:19:31;766.50;;;533.42;;
48361;SDS011;34510;51.888;5.670;2023-04-03T13:24:35;765.53;;;527.33;;
48361;SDS011;34510;51.888;5.670;2023-04-03T13:29:39;775.50;;;535.92;;
48361;SDS011;34510;51.888;5.670;2023-04-03T13:34:42;769.85;;;524.97;;
48361;SDS011;34510;51.888;5.670;2023-04-03T13:39:56;772.45;;;521.05;;
48361;SDS011;34510;51.888;5.670;2023-04-03T13:50:18;766.45;;;525.60;;
48361;SDS011;34510;51.888;5.670;2023-04-03T13:55:25;756.97;;;487.35;;
48361;SDS011;34510;51.888;5.670;2023-04-03T14:00:33;767.47;;;489.23;;
48361;SDS011;34510;51.888;5.670;2023-04-03T14:05:38;769.25;;;518.80;;
48361;SDS011;34510;51.888;5.670;2023-04-03T14:10:40;763.30;;;502.45;;
48361;SDS011;34510;51.888;5.670;2023-04-03T14:15:43;766.88;;;507.67;;
48361;SDS011;34510;51.888;5.670;2023-04-03T14:20:47;773.13;;;519.05;;
48361;SDS011;34510;51.888;5.670;2023-04-03T14:25:49;763.15;;;502.10;;
48361;SDS011;34510;51.888;5.670;2023-04-03T14:30:51;769.67;;;517.00;;
48361;SDS011;34510;51.888;5.670;2023-04-03T14:35:54;765.63;;;496.95;;
48361;SDS011;34510;51.888;5.670;2023-04-03T14:40:58;767.78;;;482.63;;
48361;SDS011;34510;51.888;5.670;2023-04-03T14:46:34;758.53;;;475.52;;
48361;SDS011;34510;51.888;5.670;2023-04-03T14:51:57;758.47;;;468.55;;
48361;SDS011;34510;51.888;5.670;2023-04-03T14:57:01;761.95;;;475.98;;
48361;SDS011;34510;51.888;5.670;2023-04-03T15:02:09;755.30;;;457.50;;
48361;SDS011;34510;51.888;5.670;2023-04-03T15:07:25;760.88;;;465.20;;
48361;SDS011;34510;51.888;5.670;2023-04-03T15:12:29;765.25;;;459.92;;
48361;SDS011;34510;51.888;5.670;2023-04-03T15:17:31;800.85;;;456.65;;
48361;SDS011;34510;51.888;5.670;2023-04-03T15:22:33;755.10;;;431.33;;
48361;SDS011;34510;51.888;5.670;2023-04-03T15:27:35;751.42;;;431.25;;
48361;SDS011;34510;51.888;5.670;2023-04-03T15:32:38;749.85;;;434.30;;
48361;SDS011;34510;51.888;5.670;2023-04-03T15:37:40;756.13;;;437.80;;
48361;SDS011;34510;51.888;5.670;2023-04-03T15:42:42;757.35;;;435.08;;
48361;SDS011;34510;51.888;5.670;2023-04-03T15:47:44;757.50;;;433.48;;
48361;SDS011;34510;51.888;5.670;2023-04-03T15:52:46;753.83;;;434.58;;
48361;SDS011;34510;51.888;5.670;2023-04-03T15:57:48;743.20;;;399.83;;
48361;SDS011;34510;51.888;5.670;2023-04-03T16:02:51;748.70;;;410.88;;
48361;SDS011;34510;51.888;5.670;2023-04-03T16:07:57;747.92;;;399.40;;
48361;SDS011;34510;51.888;5.670;2023-04-03T16:13:00;752.60;;;418.02;;
48361;SDS011;34510;51.888;5.670;2023-04-03T16:18:03;748.90;;;406.63;;
48361;SDS011;34510;51.888;5.670;2023-04-03T16:23:05;759.50;;;435.02;;
48361;SDS011;34510;51.888;5.670;2023-04-03T16:28:07;751.20;;;424.63;;
48361;SDS011;34510;51.888;5.670;2023-04-03T16:33:10;755.33;;;418.85;;
48361;SDS011;34510;51.888;5.670;2023-04-03T16:38:13;751.47;;;409.17;;
48361;SDS011;34510;51.888;5.670;2023-04-03T16:43:16;750.10;;;410.77;;
48361;SDS011;34510;51.888;5.670;2023-04-03T16:48:18;751.60;;;406.33;;
48361;SDS011;34510;51.888;5.670;2023-04-03T16:53:21;750.85;;;397.98;;
48361;SDS011;34510;51.888;5.670;2023-04-03T16:58:23;753.92;;;410.05;;
48361;SDS011;34510;51.888;5.670;2023-04-03T17:03:33;722.75;;;389.63;;
48361;SDS011;34510;51.888;5.670;2023-04-03T17:08:39;738.53;;;385.55;;
48361;SDS011;34510;51.888;5.670;2023-04-03T17:13:40;753.40;;;405.55;;
48361;SDS011;34510;51.888;5.670;2023-04-03T17:18:42;727.63;;;398.02;;
48361;SDS011;34510;51.888;5.670;2023-04-03T17:23:47;717.22;;;382.52;;
48361;SDS011;34510;51.888;5.670;2023-04-03T17:28:52;705.83;;;374.23;;
48361;SDS011;34510;51.888;5.670;2023-04-03T17:33:55;693.08;;;383.90;;
48361;SDS011;34510;51.888;5.670;2023-04-03T17:38:57;679.97;;;382.67;;
48361;SDS011;34510;51.888;5.670;2023-04-03T17:43:59;686.45;;;378.92;;
48361;SDS011;34510;51.888;5.670;2023-04-03T17:49:01;681.78;;;384.48;;
48361;SDS011;34510;51.888;5.670;2023-04-03T17:54:03;667.00;;;358.55;;
48361;SDS011;34510;51.888;5.670;2023-04-03T17:59:05;671.33;;;363.02;;
48361;SDS011;34510;51.888;5.670;2023-04-03T18:04:07;696.10;;;352.52;;
48361;SDS011;34510;51.888;5.670;2023-04-03T18:09:13;727.13;;;362.70;;
48361;SDS011;34510;51.888;5.670;2023-04-03T18:14:19;729.38;;;350.38;;
48361;SDS011;34510;51.888;5.670;2023-04-03T18:19:23;735.28;;;352.45;;
48361;SDS011;34510;51.888;5.670;2023-04-03T18:24:30;738.13;;;352.15;;
48361;SDS011;34510;51.888;5.670;2023-04-03T18:29:35;742.00;;;362.92;;
48361;SDS011;34510;51.888;5.670;2023-04-03T18:34:39;685.90;;;338.95;;
48361;SDS011;34510;51.888;5.670;2023-04-03T18:39:41;619.33;;;329.35;;
48361;SDS011;34510;51.888;5.670;2023-04-03T18:44:44;639.53;;;331.75;;
48361;SDS011;34510;51.888;5.670;2023-04-03T18:49:50;675.70;;;320.10;;
48361;SDS011;34510;51.888;5.670;2023-04-03T18:54:52;682.50;;;336.23;;
48361;SDS011;34510;51.888;5.670;2023-04-03T18:59:54;711.53;;;313.88;;
48361;SDS011;34510;51.888;5.670;2023-04-03T19:04:56;660.15;;;332.58;;
48361;SDS011;34510;51.888;5.670;2023-04-03T19:09:58;644.78;;;336.48;;
48361;SDS011;34510;51.888;5.670;2023-04-03T19:15:01;650.38;;;317.92;;
48361;SDS011;34510;51.888;5.670;2023-04-03T19:20:03;599.33;;;320.00;;
48361;SDS011;34510;51.888;5.670;2023-04-03T19:25:06;603.33;;;310.20;;
48361;SDS011;34510;51.888;5.670;2023-04-03T19:35:15;609.47;;;303.20;;
48361;SDS011;34510;51.888;5.670;2023-04-03T19:40:17;613.10;;;301.92;;
48361;SDS011;34510;51.888;5.670;2023-04-03T19:45:19;633.10;;;322.02;;
48361;SDS011;34510;51.888;5.670;2023-04-03T19:50:22;650.70;;;309.50;;
48361;SDS011;34510;51.888;5.670;2023-04-03T19:55:24;650.75;;;298.98;;
48361;SDS011;34510;51.888;5.670;2023-04-03T20:00:27;633.28;;;292.75;;
48361;SDS011;34510;51.888;5.670;2023-04-03T20:05:30;643.13;;;298.45;;
48361;SDS011;34510;51.888;5.670;2023-04-03T20:10:32;643.65;;;292.65;;
48361;SDS011;34510;51.888;5.670;2023-04-03T20:15:36;648.53;;;299.13;;
48361;SDS011;34510;51.888;5.670;2023-04-03T20:20:42;648.30;;;290.70;;
48361;SDS011;34510;51.888;5.670;2023-04-03T20:25:55;641.75;;;296.05;;
48361;SDS011;34510;51.888;5.670;2023-04-03T20:31:11;647.40;;;277.23;;
48361;SDS011;34510;51.888;5.670;2023-04-03T20:36:14;652.95;;;289.38;;
48361;SDS011;34510;51.888;5.670;2023-04-03T20:41:17;604.17;;;276.45;;
48361;SDS011;34510;51.888;5.670;2023-04-03T20:46:19;608.75;;;278.52;;
48361;SDS011;34510;51.888;5.670;2023-04-03T20:51:21;658.25;;;278.20;;
48361;SDS011;34510;51.888;5.670;2023-04-03T20:56:23;680.97;;;278.08;;
48361;SDS011;34510;51.888;5.670;2023-04-03T21:01:26;694.15;;;282.83;;
48361;SDS011;34510;51.888;5.670;2023-04-03T21:23:07;695.28;;;268.48;;
48361;SDS011;34510;51.888;5.670;2023-04-03T21:28:09;709.65;;;266.55;;
48361;SDS011;34510;51.888;5.670;2023-04-03T21:33:10;709.10;;;261.25;;
48361;SDS011;34510;51.888;5.670;2023-04-03T21:38:13;713.30;;;265.83;;
48361;SDS011;34510;51.888;5.670;2023-04-03T21:43:16;713.88;;;268.70;;
48361;SDS011;34510;51.888;5.670;2023-04-03T21:48:18;695.63;;;266.63;;
48361;SDS011;34510;51.888;5.670;2023-04-03T21:53:20;691.47;;;272.05;;
48361;SDS011;34510;51.888;5.670;2023-04-03T21:58:27;709.25;;;262.02;;
48361;SDS011;34510;51.888;5.670;2023-04-03T22:03:32;711.17;;;268.30;;
48361;SDS011;34510;51.888;5.670;2023-04-03T22:08:36;716.65;;;259.73;;
48361;SDS011;34510;51.888;5.670;2023-04-03T22:13:38;673.25;;;243.93;;
48361;SDS011;34510;51.888;5.670;2023-04-03T22:18:41;653.60;;;253.95;;
48361;SDS011;34510;51.888;5.670;2023-04-03T22:23:43;694.22;;;252.30;;
48361;SDS011;34510;51.888;5.670;2023-04-03T22:28:45;707.63;;;239.90;;
48361;SDS011;34510;51.888;5.670;2023-04-03T22:33:47;704.45;;;242.93;;
48361;SDS011;34510;51.888;5.670;2023-04-03T22:38:49;670.10;;;243.65;;
48361;SDS011;34510;51.888;5.670;2023-04-03T22:43:53;692.58;;;238.88;;
48361;SDS011;34510;51.888;5.670;2023-04-03T22:48:54;700.72;;;240.13;;
48361;SDS011;34510;51.888;5.670;2023-04-03T22:53:58;708.78;;;239.88;;
48361;SDS011;34510;51.888;5.670;2023-04-03T22:59:00;712.78;;;243.95;;
48361;SDS011;34510;51.888;5.670;2023-04-03T23:04:02;711.00;;;242.18;;
48361;SDS011;34510;51.888;5.670;2023-04-03T23:09:04;711.45;;;236.00;;
48361;SDS011;34510;51.888;5.670;2023-04-03T23:14:06;712.38;;;243.98;;
48361;SDS011;34510;51.888;5.670;2023-04-03T23:19:08;708.58;;;244.68;;
48361;SDS011;34510;51.888;5.670;2023-04-03T23:24:10;714.65;;;246.10;;
48361;SDS011;34510;51.888;5.670;2023-04-03T23:29:12;710.88;;;239.75;;
48361;SDS011;34510;51.888;5.670;2023-04-03T23:34:14;705.63;;;241.32;;
48361;SDS011;34510;51.888;5.670;2023-04-03T23:39:16;704.15;;;228.93;;
48361;SDS011;34510;51.888;5.670;2023-04-03T23:44:20;707.30;;;233.43;;
48361;SDS011;34510;51.888;5.670;2023-04-03T23:49:22;705.03;;;227.25;;
48361;SDS011;34510;51.888;5.670;2023-04-03T23:54:24;703.40;;;235.18;;
48361;SDS011;34510;51.888;5.670;2023-04-03T23:59:25;704.10;;;226.15;;
